Time;durP1;ratioP1;P1;durP2;ratioP2;P2;SDS_P1;SDS_P2;PMS_P1;PMS_P2;Temp;Humidity;BMP_temperature;BMP_pressure;BME280_temperature;BME280_humidity;BME280_pressure;Samples;Min_cycle;Max_cycle;Signal;HPM_P1;HPM_P2
2023/04/12 00:00:22;;;;;;;4.95;2.80;;;;;;;5.08;76.83;98034.22;5091640;28;20536;-76
2023/04/12 00:02:53;;;;;;;5.57;3.15;;;;;;;5.06;76.49;98037.22;5091504;28;20086;-76
2023/04/12 00:05:26;;;;;;;7.03;3.60;;;;;;;5.07;77.02;98038.00;5089469;28;20111;-77
2023/04/12 00:07:52;;;;;;;3.97;2.58;;;;;;;5.06;76.49;98034.50;5091471;28;20357;-76
2023/04/12 00:10:18;;;;;;;3.53;2.40;;;;;;;5.10;77.04;98037.47;5088331;28;20016;-76
2023/04/12 00:12:43;;;;;;;4.32;2.53;;;;;;;5.09;76.64;98043.19;5088573;28;20051;-76
2023/04/12 00:15:09;;;;;;;4.55;2.80;;;;;;;5.08;76.44;98039.66;5090810;28;20063;-76
2023/04/12 00:17:35;;;;;;;5.45;2.90;;;;;;;5.09;76.96;98038.56;5091034;28;20036;-77
2023/04/12 00:20:04;;;;;;;5.05;3.00;;;;;;;5.09;77.03;98035.84;5088296;28;20024;-77
2023/04/12 00:22:29;;;;;;;3.37;2.30;;;;;;;5.10;76.57;98028.50;5086558;28;20040;-76
2023/04/12 00:24:57;;;;;;;5.28;2.50;;;;;;;5.10;76.77;98029.31;5086725;28;20278;-76
2023/04/12 00:27:22;;;;;;;5.90;2.80;;;;;;;5.09;76.49;98026.88;5091283;28;20108;-77
2023/04/12 00:29:47;;;;;;;5.90;3.13;;;;;;;5.11;76.86;98027.41;5090810;28;20472;-77
2023/04/12 00:32:13;;;;;;;5.55;2.63;;;;;;;5.09;76.63;98032.31;5091634;28;20426;-77
2023/04/12 00:34:38;;;;;;;4.40;3.15;;;;;;;5.06;76.75;98020.91;5091000;28;20036;-76
2023/04/12 00:37:03;;;;;;;5.40;3.08;;;;;;;5.10;77.00;98025.78;5070840;28;20522;-77
2023/04/12 00:39:29;;;;;;;5.50;2.92;;;;;;;5.09;76.46;98024.16;5089346;28;20031;-77
2023/04/12 00:41:55;;;;;;;4.75;3.08;;;;;;;5.07;76.53;98033.41;5090324;28;20547;-78
2023/04/12 00:44:22;;;;;;;5.20;3.30;;;;;;;5.09;76.26;98024.97;5090152;28;20044;-77
2023/04/12 00:46:47;;;;;;;6.47;3.13;;;;;;;5.12;76.45;98021.72;5090590;28;20031;-77
2023/04/12 00:49:14;;;;;;;5.72;3.42;;;;;;;5.15;76.35;98023.06;5086840;28;20028;-76
2023/04/12 00:51:40;;;;;;;6.57;3.30;;;;;;;5.16;77.17;98017.38;5089356;28;20066;-77
2023/04/12 00:54:06;;;;;;;4.38;2.70;;;;;;;5.11;76.38;98014.66;5089929;28;20077;-77
2023/04/12 00:56:32;;;;;;;7.03;3.03;;;;;;;5.16;76.33;98021.97;5086370;28;20082;-77
2023/04/12 00:58:58;;;;;;;4.93;3.15;;;;;;;5.16;76.71;98017.38;5081315;28;20035;-77
2023/04/12 01:01:23;;;;;;;6.05;3.40;;;;;;;5.21;76.88;98019.25;5083863;28;20773;-76
2023/04/12 01:03:52;;;;;;;6.07;3.28;;;;;;;5.20;75.94;98023.06;5091397;28;20028;-77
2023/04/12 01:06:28;;;;;;;6.22;3.25;;;;;;;5.21;76.62;98017.38;5090917;28;20520;-77
2023/04/12 01:09:15;;;;;;;6.97;3.72;;;;;;;5.22;75.95;98026.31;5084763;28;20028;-77
2023/04/12 01:11:46;;;;;;;5.70;3.60;;;;;;;5.20;76.00;98026.63;5086194;28;20148;-76
2023/04/12 01:14:31;;;;;;;5.93;3.28;;;;;;;5.16;76.05;98021.97;5090441;28;20119;-77
2023/04/12 01:17:03;;;;;;;6.88;3.92;;;;;;;5.15;75.83;98026.63;5086926;28;20063;-76
2023/04/12 01:19:35;;;;;;;7.15;4.25;;;;;;;5.11;76.18;98016.53;5083182;28;20063;-77
2023/04/12 01:22:23;;;;;;;8.45;4.38;;;;;;;5.09;76.32;98022.25;5088105;28;20031;-77
2023/04/12 01:25:02;;;;;;;7.53;4.45;;;;;;;5.12;76.45;98034.47;5090507;28;20035;-78
2023/04/12 01:27:48;;;;;;;7.22;3.78;;;;;;;5.12;75.97;98024.44;5089126;28;20050;-77
2023/04/12 01:30:18;;;;;;;6.78;4.18;;;;;;;5.10;75.90;98025.78;5088716;28;20107;-77
2023/04/12 01:32:49;;;;;;;5.88;3.58;;;;;;;5.09;76.17;98019.53;5090170;28;20016;-77
2023/04/12 01:35:17;;;;;;;6.40;4.10;;;;;;;5.10;76.42;98020.34;5088413;28;20388;-77
2023/04/12 01:37:43;;;;;;;6.75;4.00;;;;;;;5.05;75.60;98019.28;5088998;28;20028;-76
2023/04/12 01:40:09;;;;;;;6.35;3.90;;;;;;;5.07;76.47;98016.28;5089879;28;20038;-76
2023/04/12 01:42:34;;;;;;;9.18;4.18;;;;;;;5.10;76.17;98028.50;5085940;28;20106;-76
2023/04/12 01:45:02;;;;;;;7.50;4.35;;;;;;;5.12;75.67;98018.16;5089042;28;20051;-77
2023/04/12 01:47:27;;;;;;;8.82;4.70;;;;;;;5.14;75.84;98024.16;5091220;28;20028;-77
2023/04/12 01:50:11;;;;;;;9.77;4.20;;;;;;;5.12;76.17;98016.28;5090121;28;20037;-76
2023/04/12 01:52:45;;;;;;;10.52;5.03;;;;;;;5.07;75.38;98022.53;5076432;28;20028;-76
2023/04/12 01:55:12;;;;;;;8.57;4.60;;;;;;;5.04;76.00;98012.22;5090931;28;20043;-77
2023/04/12 01:57:39;;;;;;;8.77;4.90;;;;;;;5.01;75.85;98018.19;5090866;28;20058;-77
2023/04/12 02:00:09;;;;;;;11.88;5.60;;;;;;;4.92;75.61;98015.16;5091305;28;20032;-77
2023/04/12 02:02:35;;;;;;;12.55;6.07;;;;;;;4.91;76.29;98004.56;5094142;28;20032;-76
2023/04/12 02:05:03;;;;;;;12.27;6.07;;;;;;;4.86;75.33;98012.72;5093241;28;20128;-77
2023/04/12 02:07:29;;;;;;;11.07;5.30;;;;;;;4.78;75.36;98003.22;5093994;28;20066;-75
2023/04/12 02:09:55;;;;;;;8.45;4.68;;;;;;;4.77;75.93;98007.81;5093910;28;20035;-75
2023/04/12 02:12:21;;;;;;;7.93;4.95;;;;;;;4.75;75.51;97999.09;5091879;28;20054;-76
2023/04/12 02:14:47;;;;;;;6.38;4.18;;;;;;;4.74;75.88;98005.63;5093273;28;20115;-75
2023/04/12 02:17:14;;;;;;;8.13;4.70;;;;;;;4.72;75.86;98005.06;5074616;28;20548;-76
2023/04/12 02:19:39;;;;;;;9.55;4.88;;;;;;;4.73;75.72;98006.72;5070551;28;20028;-77
2023/04/12 02:22:06;;;;;;;9.48;4.80;;;;;;;4.74;75.74;97999.41;5091689;28;20476;-77
2023/04/12 02:24:32;;;;;;;8.75;5.22;;;;;;;4.67;75.51;98007.81;5090933;28;20039;-77
2023/04/12 02:26:58;;;;;;;8.23;4.55;;;;;;;4.69;75.76;98002.09;5074144;28;20534;-77
2023/04/12 02:29:23;;;;;;;7.55;5.18;;;;;;;4.69;75.88;97996.66;5093560;28;20024;-77
2023/04/12 02:31:48;;;;;;;9.57;5.45;;;;;;;4.71;75.03;97998.00;5093166;28;20036;-76
2023/04/12 02:34:16;;;;;;;10.18;5.15;;;;;;;4.75;75.83;98001.81;5094320;28;20024;-76
2023/04/12 02:36:45;;;;;;;7.32;4.07;;;;;;;4.75;75.75;97999.09;5091510;28;20020;-76
2023/04/12 02:39:11;;;;;;;7.88;5.18;;;;;;;4.77;75.52;98001.56;5090727;28;20043;-76
2023/04/12 02:41:36;;;;;;;8.23;4.63;;;;;;;4.76;75.27;97994.50;5092688;28;20115;-77
2023/04/12 02:44:02;;;;;;;7.55;4.72;;;;;;;4.72;75.02;98004.28;5089561;28;20052;-76
2023/04/12 02:46:27;;;;;;;7.88;4.30;;;;;;;4.69;75.44;97992.03;5090858;28;20036;-76
2023/04/12 02:48:53;;;;;;;8.95;5.32;;;;;;;4.63;75.40;97993.13;5073784;28;20028;-76
2023/04/12 02:51:18;;;;;;;7.47;4.70;;;;;;;4.59;75.00;97995.56;5091979;28;20062;-76
2023/04/12 02:53:44;;;;;;;9.13;5.50;;;;;;;4.57;74.75;97984.13;5093876;28;20034;-75
2023/04/12 02:56:10;;;;;;;17.67;7.72;;;;;;;4.60;75.84;97986.31;5073356;28;20032;-76
2023/04/12 02:58:36;;;;;;;14.00;6.57;;;;;;;4.53;74.98;97993.09;5071602;28;20032;-76
2023/04/12 03:01:06;;;;;;;11.77;5.85;;;;;;;4.49;75.46;97983.84;5089956;28;20031;-76
2023/04/12 03:03:32;;;;;;;14.02;6.10;;;;;;;4.44;74.93;97981.97;5090575;28;20024;-76
2023/04/12 03:05:57;;;;;;;8.20;5.20;;;;;;;4.41;74.93;97991.44;5088809;28;20027;-76
2023/04/12 03:08:23;;;;;;;13.57;5.55;;;;;;;4.40;75.29;97991.72;5089829;28;20036;-76
2023/04/12 03:10:48;;;;;;;12.15;5.95;;;;;;;4.35;75.31;97991.69;5089293;28;20028;-76
2023/04/12 03:13:14;;;;;;;11.07;5.63;;;;;;;4.33;75.02;97989.22;5092317;28;20103;-76
2023/04/12 03:15:40;;;;;;;9.25;5.47;;;;;;;4.25;74.86;97990.56;5090897;28;20111;-76
2023/04/12 03:18:05;;;;;;;11.75;5.68;;;;;;;4.23;75.24;97994.66;5070833;28;20025;-77
2023/04/12 03:20:32;;;;;;;17.73;8.32;;;;;;;4.18;74.52;97984.56;5092490;28;20092;-76
2023/04/12 03:22:57;;;;;;;9.88;5.70;;;;;;;4.14;75.33;97987.00;5091750;28;20039;-76
2023/04/12 03:25:23;;;;;;;8.48;5.38;;;;;;;4.08;74.48;97981.81;5090964;28;20024;-76
2023/04/12 03:27:48;;;;;;;11.02;5.15;;;;;;;4.06;75.14;97990.22;5088985;28;20109;-76
2023/04/12 03:30:14;;;;;;;11.40;6.00;;;;;;;4.06;75.27;97990.22;5073599;28;20492;-76
2023/04/12 03:32:41;;;;;;;10.90;6.03;;;;;;;4.01;75.04;97985.63;5091638;28;20110;-76
2023/04/12 03:35:07;;;;;;;10.13;6.20;;;;;;;3.96;74.31;97977.44;5091987;28;20034;-76
2023/04/12 03:37:33;;;;;;;8.65;5.07;;;;;;;3.92;74.99;97986.38;5091205;28;20467;-76
2023/04/12 03:39:58;;;;;;;14.50;6.30;;;;;;;3.88;74.55;97980.66;5074420;28;20111;-76
2023/04/12 03:42:25;;;;;;;13.40;6.55;;;;;;;3.83;74.73;97980.63;5090779;28;20028;-77
2023/04/12 03:44:51;;;;;;;11.43;5.53;;;;;;;3.81;75.02;97980.06;5092533;28;20070;-76
2023/04/12 03:47:17;;;;;;;18.65;6.85;;;;;;;3.79;74.67;97977.66;5074301;28;20387;-77
2023/04/12 03:49:42;;;;;;;11.63;6.00;;;;;;;3.72;74.69;97974.34;5093112;28;20114;-76
2023/04/12 03:52:08;;;;;;;14.82;7.30;;;;;;;3.66;74.36;97973.50;5092665;28;20423;-76
2023/04/12 03:54:34;;;;;;;12.70;6.47;;;;;;;3.61;74.49;97975.38;5072597;28;20032;-76
2023/04/12 03:57:01;;;;;;;9.70;5.68;;;;;;;3.58;74.24;97979.44;5092338;28;20028;-77
2023/04/12 03:59:27;;;;;;;15.85;7.43;;;;;;;3.53;74.85;97982.09;5088397;28;20107;-76
2023/04/12 04:01:54;;;;;;;29.88;12.23;;;;;;;3.51;74.39;97978.84;5088568;28;20585;-76
2023/04/12 04:04:20;;;;;;;12.95;6.47;;;;;;;3.50;74.81;97978.00;5088458;28;20028;-76
2023/04/12 04:06:45;;;;;;;88.68;38.70;;;;;;;3.49;75.17;97968.25;5088943;28;20032;-77
2023/04/12 04:09:11;;;;;;;112.05;33.75;;;;;;;3.47;74.53;97970.41;5087333;28;20461;-76
2023/04/12 04:11:36;;;;;;;56.60;21.48;;;;;;;3.47;75.06;97967.69;5082820;28;20085;-76
2023/04/12 04:14:02;;;;;;;55.45;23.13;;;;;;;3.47;74.19;97975.00;5071221;28;20039;-76
2023/04/12 04:16:29;;;;;;;46.70;18.45;;;;;;;3.45;74.71;97980.72;5088260;28;20031;-76
2023/04/12 04:18:55;;;;;;;24.10;9.45;;;;;;;3.44;74.51;97979.06;5090428;28;20032;-77
2023/04/12 04:21:21;;;;;;;24.88;9.75;;;;;;;3.42;74.18;97984.75;5090672;28;20387;-76
2023/04/12 04:23:50;;;;;;;27.45;10.05;;;;;;;3.40;74.13;97981.47;5092059;28;20074;-76
2023/04/12 04:26:16;;;;;;;57.60;18.30;;;;;;;3.44;74.35;97979.06;5089257;28;20055;-76
2023/04/12 04:28:44;;;;;;;37.53;13.30;;;;;;;3.47;74.24;97981.25;5090808;28;20063;-77
2023/04/12 04:31:12;;;;;;;25.02;9.82;;;;;;;3.51;74.56;97982.34;5088402;28;20024;-76
2023/04/12 04:33:38;;;;;;;18.50;8.10;;;;;;;3.57;75.06;97989.44;5091845;28;20849;-76
2023/04/12 04:36:06;;;;;;;14.35;6.75;;;;;;;3.66;74.94;97988.97;5088044;28;20024;-76
2023/04/12 04:38:32;;;;;;;12.20;7.10;;;;;;;3.74;75.04;97996.59;5091566;28;20712;-77
2023/04/12 04:41:01;;;;;;;12.40;7.68;;;;;;;3.80;74.19;97990.13;5073235;28;20020;-77
2023/04/12 04:43:29;;;;;;;13.00;7.32;;;;;;;3.87;74.76;97990.69;5087917;28;20040;-77
2023/04/12 04:45:55;;;;;;;10.80;6.90;;;;;;;3.94;74.50;97984.19;5091258;28;20024;-77
2023/04/12 04:48:21;;;;;;;12.73;6.40;;;;;;;4.01;74.25;97996.47;5071809;28;20495;-76
2023/04/12 04:50:47;;;;;;;9.70;5.40;;;;;;;4.05;74.52;97996.75;5084472;28;20059;-77
2023/04/12 04:53:12;;;;;;;9.98;5.80;;;;;;;4.07;74.42;98000.00;5091254;28;20042;-77
2023/04/12 04:55:38;;;;;;;8.73;5.30;;;;;;;4.14;74.86;98005.19;5091319;28;20044;-77
2023/04/12 04:58:07;;;;;;;6.95;4.85;;;;;;;4.16;74.29;98008.44;5091521;28;20028;-77
2023/04/12 05:00:34;;;;;;;10.07;5.88;;;;;;;4.16;74.88;98016.59;5089334;28;20407;-77
2023/04/12 05:03:02;;;;;;;9.70;5.38;;;;;;;4.16;74.75;98009.28;5086618;28;20024;-76
2023/04/12 05:05:29;;;;;;;12.48;7.63;;;;;;;4.17;74.90;98010.91;5089176;28;20031;-76
2023/04/12 05:07:55;;;;;;;10.18;6.47;;;;;;;4.22;74.81;98020.97;5088143;28;20070;-77
2023/04/12 05:10:21;;;;;;;12.60;6.85;;;;;;;4.26;74.71;98016.63;5066711;28;20161;-77
2023/04/12 05:12:46;;;;;;;12.20;7.22;;;;;;;4.29;74.27;98021.53;5084507;28;20501;-77
2023/04/12 05:15:11;;;;;;;11.52;7.68;;;;;;;4.33;74.79;98024.53;5090444;28;20444;-77
2023/04/12 05:17:37;;;;;;;11.65;5.00;;;;;;;4.35;74.21;98016.94;5090303;28;20043;-77
2023/04/12 05:20:07;;;;;;;10.75;5.43;;;;;;;4.37;74.15;98014.78;5090080;28;20032;-76
2023/04/12 05:22:36;;;;;;;9.90;5.28;;;;;;;4.40;74.56;98014.25;5089929;28;20488;-77
2023/04/12 05:25:02;;;;;;;11.05;6.40;;;;;;;4.49;74.57;98011.00;5091197;28;20023;-76
2023/04/12 05:27:28;;;;;;;11.60;6.00;;;;;;;4.55;74.82;98016.19;5085860;28;20088;-77
2023/04/12 05:29:55;;;;;;;10.02;5.78;;;;;;;4.57;74.24;98007.78;5090859;28;20020;-77
2023/04/12 05:32:21;;;;;;;11.38;6.10;;;;;;;4.57;74.34;98018.66;5090667;28;20028;-77
2023/04/12 05:34:46;;;;;;;14.10;7.65;;;;;;;4.57;74.24;98014.00;5091064;28;20098;-76
2023/04/12 05:37:12;;;;;;;12.32;6.95;;;;;;;4.53;74.62;98018.34;5090660;28;20024;-76
2023/04/12 05:39:37;;;;;;;12.02;7.43;;;;;;;4.53;74.00;98017.53;5084655;28;20463;-76
2023/04/12 05:42:04;;;;;;;9.93;5.80;;;;;;;4.54;73.77;98019.19;5088969;28;20761;-75
2023/04/12 05:44:29;;;;;;;11.45;6.20;;;;;;;4.54;73.65;98016.47;5068514;28;20051;-76
2023/04/12 05:46:54;;;;;;;9.85;5.60;;;;;;;4.55;73.83;98018.91;5056475;28;20063;-75
2023/04/12 05:49:20;;;;;;;7.18;5.25;;;;;;;4.60;74.44;98018.91;5053992;28;20120;-75
2023/04/12 05:51:45;;;;;;;5.85;4.65;;;;;;;4.59;73.90;98011.84;5051735;28;20029;-75
2023/04/12 05:54:10;;;;;;;9.48;4.90;;;;;;;4.61;73.75;98015.13;5053312;28;20041;-74
2023/04/12 05:56:36;;;;;;;8.00;4.20;;;;;;;4.58;73.96;98010.22;5050445;28;20024;-73
2023/04/12 05:59:03;;;;;;;7.60;4.60;;;;;;;4.59;74.09;98011.84;5046189;28;20525;-73
2023/04/12 06:01:31;;;;;;;6.93;4.32;;;;;;;4.60;73.56;98007.25;5060529;28;20040;-75
2023/04/12 06:03:57;;;;;;;11.75;4.90;;;;;;;4.64;74.16;97994.75;5062398;28;20021;-73
2023/04/12 06:06:23;;;;;;;8.93;4.85;;;;;;;4.66;73.35;97997.19;5049859;28;20038;-75
2023/04/12 06:08:48;;;;;;;8.70;4.97;;;;;;;4.70;74.31;97993.66;5063419;28;20115;-73
2023/04/12 06:11:15;;;;;;;22.35;9.88;;;;;;;4.75;74.14;97984.72;5048706;28;20057;-73
2023/04/12 06:13:40;;;;;;;27.90;12.10;;;;;;;4.80;73.95;97989.34;5055780;28;20033;-74
2023/04/12 06:16:06;;;;;;;44.20;15.75;;;;;;;4.86;73.50;97983.66;5064757;28;20086;-75
2023/04/12 06:18:32;;;;;;;23.05;9.43;;;;;;;4.94;73.42;97985.00;5048842;28;20112;-74
2023/04/12 06:20:57;;;;;;;21.42;9.35;;;;;;;4.98;73.60;97980.66;5064183;28;20100;-75
2023/04/12 06:23:23;;;;;;;13.27;6.15;;;;;;;5.06;73.54;97973.88;5053647;28;20477;-75
2023/04/12 06:25:49;;;;;;;9.95;5.10;;;;;;;5.09;73.05;97980.69;5049068;28;20098;-74
2023/04/12 06:28:15;;;;;;;9.13;5.03;;;;;;;5.19;73.81;97983.38;5063785;28;20090;-73
2023/04/12 06:30:41;;;;;;;10.57;5.72;;;;;;;5.24;73.86;97983.38;5067288;28;20130;-75
2023/04/12 06:33:07;;;;;;;15.10;6.35;;;;;;;5.29;73.09;97985.28;5052651;28;20676;-74
2023/04/12 06:35:32;;;;;;;14.23;6.18;;;;;;;5.35;73.64;97976.84;5065793;28;20056;-75
2023/04/12 06:37:58;;;;;;;11.80;5.65;;;;;;;5.36;72.91;97967.59;5067969;28;20432;-75
2023/04/12 06:40:23;;;;;;;13.25;5.25;;;;;;;5.42;73.00;97981.19;5064430;28;20070;-76
2023/04/12 06:42:48;;;;;;;11.50;4.85;;;;;;;5.47;72.89;97976.56;5057661;28;20033;-75
2023/04/12 06:45:14;;;;;;;8.43;4.28;;;;;;;5.53;72.41;97968.38;5091971;28;20115;-74
2023/04/12 06:47:39;;;;;;;9.13;5.05;;;;;;;5.58;72.62;97973.81;5091097;28;20111;-74
2023/04/12 06:50:06;;;;;;;25.92;12.43;;;;;;;5.65;73.04;97969.72;5091167;28;20051;-74
2023/04/12 06:52:32;;;;;;;22.10;10.02;;;;;;;5.69;72.52;97966.44;5091457;28;20468;-75
2023/04/12 06:54:57;;;;;;;10.65;5.45;;;;;;;5.75;72.94;97968.06;5092042;28;20024;-76
2023/04/12 06:57:23;;;;;;;12.40;5.65;;;;;;;5.87;73.16;97965.84;5092142;28;20064;-77
2023/04/12 06:59:48;;;;;;;9.93;5.00;;;;;;;5.95;72.56;97976.16;5089771;28;20020;-76
2023/04/12 07:02:14;;;;;;;11.20;5.20;;;;;;;6.00;72.83;97966.34;5073652;28;20028;-75
2023/04/12 07:04:39;;;;;;;13.68;5.80;;;;;;;5.93;72.50;97963.91;5089228;28;20400;-76
2023/04/12 07:07:05;;;;;;;10.30;5.00;;;;;;;5.90;72.52;97968.03;5090811;28;20032;-77
2023/04/12 07:09:34;;;;;;;9.52;4.88;;;;;;;5.87;72.46;97971.28;5091871;28;20072;-77
2023/04/12 07:12:00;;;;;;;7.15;4.25;;;;;;;5.80;71.63;97957.97;5072832;28;20108;-76
2023/04/12 07:14:25;;;;;;;7.95;4.30;;;;;;;5.78;72.17;97954.69;5091112;28;20120;-75
2023/04/12 07:16:50;;;;;;;10.07;5.47;;;;;;;5.80;72.41;97960.69;5090960;28;20040;-75
2023/04/12 07:19:16;;;;;;;6.93;3.88;;;;;;;5.82;72.25;97961.22;5092139;28;20024;-76
2023/04/12 07:21:41;;;;;;;7.28;3.58;;;;;;;5.86;72.29;97966.94;5091605;28;20082;-75
2023/04/12 07:24:07;;;;;;;5.25;3.50;;;;;;;5.89;72.59;97966.38;5091762;28;20028;-75
2023/04/12 07:26:32;;;;;;;6.72;3.60;;;;;;;5.92;72.37;97965.81;5071436;28;20028;-75
2023/04/12 07:28:58;;;;;;;7.15;3.80;;;;;;;5.99;72.63;97962.81;5085223;28;20432;-73
2023/04/12 07:31:23;;;;;;;7.00;4.55;;;;;;;6.03;72.29;97960.38;5088428;28;21811;-74
2023/04/12 07:33:49;;;;;;;6.10;3.78;;;;;;;6.10;72.40;97956.28;5090414;28;20039;-75
2023/04/12 07:36:16;;;;;;;6.90;3.90;;;;;;;6.20;72.22;97960.84;5089919;28;20052;-74
2023/04/12 07:38:41;;;;;;;5.80;3.40;;;;;;;6.27;72.41;97955.09;5089071;28;20476;-74
2023/04/12 07:41:07;;;;;;;7.00;3.80;;;;;;;6.37;72.27;97955.03;5072382;28;20027;-74
2023/04/12 07:43:32;;;;;;;8.27;4.00;;;;;;;6.49;72.27;97949.25;5089786;28;20039;-74
2023/04/12 07:45:58;;;;;;;5.63;3.45;;;;;;;6.60;72.25;97949.97;5089492;28;20040;-75
2023/04/12 07:48:23;;;;;;;4.53;2.47;;;;;;;6.72;71.77;97949.66;5090384;28;20030;-75
2023/04/12 07:50:49;;;;;;;4.63;2.92;;;;;;;6.82;71.59;97951.47;5089966;28;20764;-72
2023/04/12 07:53:26;;;;;;;4.13;2.63;;;;;;;6.95;71.55;97941.84;5089811;28;20102;-74
2023/04/12 07:55:52;;;;;;;3.40;2.58;;;;;;;7.12;71.52;97944.97;5089472;28;20047;-74
2023/04/12 07:58:20;;;;;;;3.70;2.47;;;;;;;7.26;69.47;97941.56;5090209;28;20024;-73
2023/04/12 08:00:46;;;;;;;6.57;4.10;;;;;;;7.28;70.41;97934.72;5087828;28;20044;-73
2023/04/12 08:03:12;;;;;;;4.22;2.78;;;;;;;7.39;70.19;97938.16;5090144;28;20056;-73
2023/04/12 08:05:38;;;;;;;4.32;2.78;;;;;;;7.51;70.50;97942.44;5086854;28;20472;-74
2023/04/12 08:08:05;;;;;;;3.53;2.53;;;;;;;7.60;69.58;97940.66;5089734;28;20123;-72
2023/04/12 08:10:30;;;;;;;4.65;3.15;;;;;;;7.69;69.26;97935.41;5090113;28;20035;-72
2023/04/12 08:12:57;;;;;;;5.93;3.70;;;;;;;7.80;70.42;97925.19;5089990;28;20030;-73
2023/04/12 08:15:22;;;;;;;4.57;2.92;;;;;;;7.87;69.90;97931.91;5089197;28;20031;-74
2023/04/12 08:17:47;;;;;;;4.38;2.92;;;;;;;7.98;69.22;97929.84;5089264;28;20028;-74
2023/04/12 08:20:14;;;;;;;4.88;2.80;;;;;;;8.03;69.57;97938.00;5090181;28;20054;-75
2023/04/12 08:22:40;;;;;;;4.43;2.63;;;;;;;8.08;69.00;97934.41;5071046;28;20093;-73
2023/04/12 08:25:07;;;;;;;5.45;2.60;;;;;;;8.13;68.87;97926.16;5090413;28;20035;-73
2023/04/12 08:27:33;;;;;;;5.63;2.55;;;;;;;8.19;69.11;97926.88;5088932;28;20648;-75
2023/04/12 08:29:58;;;;;;;4.70;2.58;;;;;;;8.19;68.16;97926.88;5089905;28;20020;-76
2023/04/12 08:32:24;;;;;;;3.80;2.72;;;;;;;8.17;65.11;97918.16;5088589;28;20032;-72
2023/04/12 08:34:49;;;;;;;3.78;2.88;;;;;;;8.19;66.75;97915.94;5086592;28;20028;-72
2023/04/12 08:37:15;;;;;;;4.07;2.70;;;;;;;8.26;67.16;97916.41;5089225;28;20503;-75
2023/04/12 08:39:41;;;;;;;4.43;3.10;;;;;;;8.41;67.68;97914.53;5086009;28;20392;-73
2023/04/12 08:42:09;;;;;;;3.17;2.20;;;;;;;8.60;67.86;97918.13;5086377;28;20380;-75
2023/04/12 08:44:37;;;;;;;3.63;2.83;;;;;;;8.78;67.87;97897.34;5077146;28;20043;-75
2023/04/12 08:47:04;;;;;;;5.88;3.70;;;;;;;9.09;68.20;97907.75;5078999;28;20273;-74
2023/04/12 08:49:31;;;;;;;4.43;3.17;;;;;;;9.33;67.93;97903.25;5080407;28;20149;-74
2023/04/12 08:51:59;;;;;;;3.72;1.95;;;;;;;9.51;68.38;97896.91;5084856;28;20032;-75
2023/04/12 08:54:26;;;;;;;4.65;3.40;;;;;;;9.71;67.62;97892.13;5086391;28;20028;-73
2023/04/12 08:56:52;;;;;;;3.47;2.15;;;;;;;9.91;67.28;97895.59;5078966;28;20081;-73
2023/04/12 08:59:18;;;;;;;2.22;2.00;;;;;;;10.08;67.09;97895.75;5069343;28;21116;-74
2023/04/12 09:01:44;;;;;;;2.80;1.70;;;;;;;10.22;66.46;97892.19;5082598;28;20040;-74
2023/04/12 09:04:10;;;;;;;9.27;5.68;;;;;;;10.27;65.75;97884.66;5080048;28;20153;-75
2023/04/12 09:06:35;;;;;;;110.43;36.85;;;;;;;10.25;63.61;97886.88;5081664;28;20464;-72
2023/04/12 09:09:05;;;;;;;9.00;4.75;;;;;;;10.20;64.14;97877.97;5074459;28;20032;-72
2023/04/12 09:11:31;;;;;;;4.72;2.80;;;;;;;10.11;62.57;97883.38;5089546;28;20028;-74
2023/04/12 09:13:57;;;;;;;4.65;2.30;;;;;;;10.03;63.30;97884.09;5074697;28;20036;-80
2023/04/12 09:16:40;;;;;;;4.15;1.77;;;;;;;10.04;63.39;97878.31;5076748;28;20405;-70
2023/04/12 09:19:06;;;;;;;3.53;1.75;;;;;;;10.05;59.91;97874.44;5069781;28;20119;-72
2023/04/12 09:21:35;;;;;;;2.33;1.50;;;;;;;9.99;62.59;97878.41;5074624;28;20040;-72
2023/04/12 09:24:09;;;;;;;2.03;1.52;;;;;;;9.99;62.34;97878.41;5081378;28;20104;-72
2023/04/12 09:26:35;;;;;;;2.17;1.48;;;;;;;10.03;63.18;97873.94;5084206;28;20036;-83
2023/04/12 09:29:02;;;;;;;2.25;1.42;;;;;;;10.07;62.51;97868.66;5075331;28;20070;-73
2023/04/12 09:31:27;;;;;;;7.18;1.50;;;;;;;10.15;62.94;97869.88;5081141;28;20024;-75
2023/04/12 09:34:05;;;;;;;2.83;1.70;;;;;;;10.24;59.70;97868.03;5081817;28;20065;-74
2023/04/12 09:36:37;;;;;;;3.53;1.88;;;;;;;10.25;62.06;97866.91;5079890;28;20024;-71
2023/04/12 09:39:04;;;;;;;2.80;1.92;;;;;;;10.29;61.49;97859.69;5075129;28;20043;-69
2023/04/12 09:41:30;;;;;;;3.55;2.00;;;;;;;10.28;60.65;97858.06;5072394;28;20067;-69
2023/04/12 09:43:57;;;;;;;5.55;2.33;;;;;;;10.28;61.10;97858.06;5081341;28;20040;-70
2023/04/12 09:46:23;;;;;;;2.40;1.73;;;;;;;10.25;60.55;97859.47;5087881;28;20103;-71
2023/04/12 09:48:50;;;;;;;2.90;1.63;;;;;;;10.32;60.96;97852.78;5089369;28;20110;-72
2023/04/12 09:51:27;;;;;;;2.85;1.90;;;;;;;10.36;61.20;97849.13;5087840;28;20540;-72
2023/04/12 09:54:05;;;;;;;2.97;1.60;;;;;;;10.39;61.14;97850.44;5087099;28;20110;-72
2023/04/12 09:56:32;;;;;;;3.75;2.40;;;;;;;10.37;60.82;97841.69;5083894;28;20028;-71
2023/04/12 09:59:03;;;;;;;3.95;2.50;;;;;;;10.40;60.08;97843.84;5088455;28;20031;-69
2023/04/12 10:01:37;;;;;;;3.63;2.08;;;;;;;10.46;61.27;97845.34;5086321;28;20040;-71
2023/04/12 10:04:05;;;;;;;3.53;1.98;;;;;;;10.51;60.74;97838.91;5086739;28;20055;-72
2023/04/12 10:06:32;;;;;;;4.47;2.28;;;;;;;10.56;60.48;97839.63;5089325;28;20036;-72
2023/04/12 10:08:59;;;;;;;4.28;2.30;;;;;;;10.62;59.60;97831.25;5092074;28;20035;-73
2023/04/12 10:11:27;;;;;;;3.55;2.42;;;;;;;10.56;60.44;97823.16;5087754;28;20502;-71
2023/04/12 10:13:55;;;;;;;4.32;2.83;;;;;;;10.62;59.64;97823.03;5090338;28;20044;-71
2023/04/12 10:16:21;;;;;;;2.63;1.77;;;;;;;10.74;60.17;97825.22;5092610;28;20028;-72
2023/04/12 10:18:49;;;;;;;4.80;2.90;;;;;;;10.87;60.76;97824.31;5091631;28;20540;-72
2023/04/12 10:21:15;;;;;;;3.40;1.65;;;;;;;11.01;58.49;97822.31;5091617;28;20034;-71
2023/04/12 10:23:43;;;;;;;3.35;2.05;;;;;;;11.07;59.39;97820.22;5092070;28;20028;-72
2023/04/12 10:26:10;;;;;;;2.88;1.80;;;;;;;11.16;58.62;97815.59;5074110;28;20110;-71
2023/04/12 10:28:35;;;;;;;3.00;1.90;;;;;;;11.27;57.47;97818.88;5090447;28;20036;-72
2023/04/12 10:31:28;;;;;;;3.78;2.95;;;;;;;11.42;58.67;97811.34;5091573;28;20525;-72
2023/04/12 10:33:54;;;;;;;3.22;2.03;;;;;;;11.62;58.26;97805.25;5088019;28;20043;-75
2023/04/12 10:36:19;;;;;;;2.50;1.88;;;;;;;11.79;58.30;97809.19;5088827;28;20476;-72
2023/04/12 10:38:46;;;;;;;5.45;4.10;;;;;;;11.95;56.77;97800.47;5090867;28;20131;-72
2023/04/12 10:41:16;;;;;;;3.50;2.17;;;;;;;12.05;57.24;97800.19;5091669;28;20043;-72
2023/04/12 10:43:52;;;;;;;2.78;1.88;;;;;;;12.19;57.18;97792.59;5071221;28;20155;-74
2023/04/12 10:46:45;;;;;;;2.80;2.15;;;;;;;12.28;54.85;97783.53;5089172;28;20032;-72
2023/04/12 10:49:15;;;;;;;4.43;2.35;;;;;;;12.38;56.11;97783.22;5091137;28;20069;-71
2023/04/12 10:52:02;;;;;;;3.30;1.75;;;;;;;12.45;55.88;97779.97;5091329;28;20081;-71
2023/04/12 10:54:31;;;;;;;1.63;1.52;;;;;;;12.50;54.60;97780.59;5071999;28;20036;-71
2023/04/12 10:56:56;;;;;;;2.75;1.42;;;;;;;12.52;55.15;97769.28;5088411;28;20583;-71
2023/04/12 10:59:22;;;;;;;3.30;1.50;;;;;;;12.53;54.74;97770.06;5092006;28;20115;-73
2023/04/12 11:02:06;;;;;;;5.00;2.47;;;;;;;12.53;55.16;97773.66;5070157;28;20415;-74
2023/04/12 11:04:31;;;;;;;2.50;1.67;;;;;;;12.53;53.75;97770.91;5085479;28;20036;-75
2023/04/12 11:07:03;;;;;;;4.32;2.72;;;;;;;12.47;53.23;97773.00;5087388;28;20105;-73
2023/04/12 11:09:31;;;;;;;3.22;1.85;;;;;;;12.47;54.38;97764.75;5089896;28;20361;-73
2023/04/12 11:12:18;;;;;;;7.85;3.72;;;;;;;12.53;53.86;97770.06;5089404;28;20534;-74
2023/04/12 11:14:46;;;;;;;5.50;2.47;;;;;;;12.50;53.79;97766.84;5089687;28;20044;-74
2023/04/12 11:17:11;;;;;;;2.60;2.10;;;;;;;12.46;52.82;97763.13;5067547;28;20036;-74
2023/04/12 11:19:42;;;;;;;5.07;2.63;;;;;;;12.39;53.30;97757.34;5090051;28;20502;-75
2023/04/12 11:22:09;;;;;;;8.45;6.13;;;;;;;12.39;53.95;97754.59;5072234;28;20016;-76
2023/04/12 11:24:49;;;;;;;4.97;2.50;;;;;;;12.37;53.16;97759.59;5072334;28;20055;-77
2023/04/12 11:27:15;;;;;;;;;;;;;;;12.33;53.51;97758.63;5091279;28;20099;-77
2023/04/12 11:29:42;;;;;;;5.03;2.38;;;;;;;12.30;52.51;97757.31;5091142;28;19969;-77
2023/04/12 11:32:13;;;;;;;2.10;1.90;;;;;;;12.20;51.33;97755.72;5073043;28;20024;-77
2023/04/12 11:34:40;;;;;;;2.50;1.92;;;;;;;12.12;52.21;97751.03;5091446;28;20028;-77
2023/04/12 11:37:07;;;;;;;4.82;2.53;;;;;;;12.12;53.23;97750.25;5089288;28;20024;-78